sensor_id;sensor_type;location;lat;lon;timestamp;temperature;humidity
22917;DHT22;11624;53.250;7.456;2022-10-18T00:00:52;19.70;64.30
22917;DHT22;11624;53.250;7.456;2022-10-18T00:03:20;19.69;64.28
22917;DHT22;11624;53.250;7.456;2022-10-18T00:05:50;19.69;64.34
22917;DHT22;11624;53.250;7.456;2022-10-18T00:08:19;19.68;64.30
22917;DHT22;11624;53.250;7.456;2022-10-18T00:10:47;19.68;64.43
22917;DHT22;11624;53.250;7.456;2022-10-18T00:13:15;19.69;64.37
22917;DHT22;11624;53.250;7.456;2022-10-18T00:15:48;19.68;64.24
22917;DHT22;11624;53.250;7.456;2022-10-18T00:18:16;19.68;64.38
22917;DHT22;11624;53.250;7.456;2022-10-18T00:20:44;19.72;64.29
22917;DHT22;11624;53.250;7.456;2022-10-18T00:23:13;19.73;64.30
22917;DHT22;11624;53.250;7.456;2022-10-18T00:25:41;19.69;64.65
22917;DHT22;11624;53.250;7.456;2022-10-18T00:28:10;19.70;64.72
22917;DHT22;11624;53.250;7.456;2022-10-18T00:30:38;19.71;64.68
22917;DHT22;11624;53.250;7.456;2022-10-18T00:33:06;19.71;64.67
22917;DHT22;11624;53.250;7.456;2022-10-18T00:35:34;19.63;64.97
22917;DHT22;11624;53.250;7.456;2022-10-18T00:38:02;19.60;65.12
22917;DHT22;11624;53.250;7.456;2022-10-18T00:40:31;19.65;64.98
22917;DHT22;11624;53.250;7.456;2022-10-18T00:42:59;19.71;64.73
22917;DHT22;11624;53.250;7.456;2022-10-18T00:45:28;19.73;64.62
22917;DHT22;11624;53.250;7.456;2022-10-18T00:47:59;19.65;64.82
22917;DHT22;11624;53.250;7.456;2022-10-18T00:50:31;19.60;65.05
22917;DHT22;11624;53.250;7.456;2022-10-18T00:53:02;19.60;65.21
22917;DHT22;11624;53.250;7.456;2022-10-18T00:55:33;19.60;65.11
22917;DHT22;11624;53.250;7.456;2022-10-18T00:58:01;19.61;65.14
22917;DHT22;11624;53.250;7.456;2022-10-18T01:00:30;19.61;65.14
22917;DHT22;11624;53.250;7.456;2022-10-18T01:03:00;19.62;65.01
22917;DHT22;11624;53.250;7.456;2022-10-18T01:05:28;19.62;64.94
22917;DHT22;11624;53.250;7.456;2022-10-18T01:08:15;19.65;64.56
22917;DHT22;11624;53.250;7.456;2022-10-18T01:10:57;19.65;64.56
22917;DHT22;11624;53.250;7.456;2022-10-18T01:13:37;19.62;64.45
22917;DHT22;11624;53.250;7.456;2022-10-18T01:16:11;19.68;64.43
22917;DHT22;11624;53.250;7.456;2022-10-18T01:18:45;19.65;64.37
22917;DHT22;11624;53.250;7.456;2022-10-18T01:21:26;19.65;64.08
22917;DHT22;11624;53.250;7.456;2022-10-18T01:27:20;19.55;64.01
22917;DHT22;11624;53.250;7.456;2022-10-18T01:30:02;19.56;63.96
22917;DHT22;11624;53.250;7.456;2022-10-18T01:32:38;19.54;63.91
22917;DHT22;11624;53.250;7.456;2022-10-18T01:35:10;19.53;63.90
22917;DHT22;11624;53.250;7.456;2022-10-18T01:37:42;19.52;63.78
22917;DHT22;11624;53.250;7.456;2022-10-18T01:40:14;19.48;63.82
22917;DHT22;11624;53.250;7.456;2022-10-18T01:42:45;19.47;63.65
22917;DHT22;11624;53.250;7.456;2022-10-18T01:45:15;19.46;63.63
22917;DHT22;11624;53.250;7.456;2022-10-18T01:47:45;19.46;63.73
22917;DHT22;11624;53.250;7.456;2022-10-18T01:50:14;19.44;63.76
22917;DHT22;11624;53.250;7.456;2022-10-18T01:52:49;19.42;63.63
22917;DHT22;11624;53.250;7.456;2022-10-18T01:55:23;19.41;63.60
22917;DHT22;11624;53.250;7.456;2022-10-18T01:57:57;19.40;63.61
22917;DHT22;11624;53.250;7.456;2022-10-18T02:00:31;19.38;63.55
22917;DHT22;11624;53.250;7.456;2022-10-18T02:03:08;19.36;63.58
22917;DHT22;11624;53.250;7.456;2022-10-18T02:05:47;19.31;63.56
22917;DHT22;11624;53.250;7.456;2022-10-18T02:08:21;19.30;63.66
22917;DHT22;11624;53.250;7.456;2022-10-18T02:10:55;19.28;63.56
22917;DHT22;11624;53.250;7.456;2022-10-18T02:13:29;19.27;63.48
22917;DHT22;11624;53.250;7.456;2022-10-18T02:16:02;19.24;63.42
22917;DHT22;11624;53.250;7.456;2022-10-18T02:18:36;19.20;63.41
22917;DHT22;11624;53.250;7.456;2022-10-18T02:21:08;19.16;63.42
22917;DHT22;11624;53.250;7.456;2022-10-18T02:23:37;19.11;63.47
22917;DHT22;11624;53.250;7.456;2022-10-18T02:26:06;19.07;63.55
22917;DHT22;11624;53.250;7.456;2022-10-18T02:28:34;19.05;63.54
22917;DHT22;11624;53.250;7.456;2022-10-18T02:31:06;19.03;63.43
22917;DHT22;11624;53.250;7.456;2022-10-18T02:33:44;18.99;63.27
22917;DHT22;11624;53.250;7.456;2022-10-18T02:36:16;18.96;63.32
22917;DHT22;11624;53.250;7.456;2022-10-18T02:38:46;18.94;63.44
22917;DHT22;11624;53.250;7.456;2022-10-18T02:41:21;18.88;63.42
22917;DHT22;11624;53.250;7.456;2022-10-18T02:43:49;18.87;63.49
22917;DHT22;11624;53.250;7.456;2022-10-18T02:46:17;18.87;63.47
22917;DHT22;11624;53.250;7.456;2022-10-18T02:48:47;18.86;63.50
22917;DHT22;11624;53.250;7.456;2022-10-18T02:51:15;18.83;63.44
22917;DHT22;11624;53.250;7.456;2022-10-18T02:53:43;18.81;63.49
22917;DHT22;11624;53.250;7.456;2022-10-18T02:56:11;18.77;63.66
22917;DHT22;11624;53.250;7.456;2022-10-18T02:58:39;18.76;63.76
22917;DHT22;11624;53.250;7.456;2022-10-18T03:01:07;18.74;63.73
22917;DHT22;11624;53.250;7.456;2022-10-18T03:03:36;18.74;63.74
22917;DHT22;11624;53.250;7.456;2022-10-18T03:06:05;18.74;63.88
22917;DHT22;11624;53.250;7.456;2022-10-18T03:08:34;18.73;63.82
22917;DHT22;11624;53.250;7.456;2022-10-18T03:11:02;18.71;63.73
22917;DHT22;11624;53.250;7.456;2022-10-18T03:13:30;18.71;63.65
22917;DHT22;11624;53.250;7.456;2022-10-18T03:16:00;18.70;63.66
22917;DHT22;11624;53.250;7.456;2022-10-18T03:18:28;18.69;63.69
22917;DHT22;11624;53.250;7.456;2022-10-18T03:20:56;18.69;63.75
22917;DHT22;11624;53.250;7.456;2022-10-18T03:23:26;18.68;63.85
22917;DHT22;11624;53.250;7.456;2022-10-18T03:25:54;18.68;63.73
22917;DHT22;11624;53.250;7.456;2022-10-18T03:28:22;18.68;63.64
22917;DHT22;11624;53.250;7.456;2022-10-18T03:30:50;18.63;63.75
22917;DHT22;11624;53.250;7.456;2022-10-18T03:33:18;18.62;63.83
22917;DHT22;11624;53.250;7.456;2022-10-18T03:35:46;18.59;63.92
22917;DHT22;11624;53.250;7.456;2022-10-18T03:38:14;18.62;63.97
22917;DHT22;11624;53.250;7.456;2022-10-18T03:40:43;18.61;64.11
22917;DHT22;11624;53.250;7.456;2022-10-18T03:43:11;18.61;64.20
22917;DHT22;11624;53.250;7.456;2022-10-18T03:45:39;18.61;64.32
22917;DHT22;11624;53.250;7.456;2022-10-18T03:48:08;18.63;64.31
22917;DHT22;11624;53.250;7.456;2022-10-18T03:50:36;18.65;64.24
22917;DHT22;11624;53.250;7.456;2022-10-18T03:53:04;18.67;64.21
22917;DHT22;11624;53.250;7.456;2022-10-18T03:55:32;18.64;64.27
22917;DHT22;11624;53.250;7.456;2022-10-18T03:58:01;18.65;64.28
22917;DHT22;11624;53.250;7.456;2022-10-18T04:00:29;18.65;64.37
22917;DHT22;11624;53.250;7.456;2022-10-18T04:02:57;18.70;64.30
22917;DHT22;11624;53.250;7.456;2022-10-18T04:05:26;18.74;64.14
22917;DHT22;11624;53.250;7.456;2022-10-18T04:07:56;18.77;64.00
22917;DHT22;11624;53.250;7.456;2022-10-18T04:10:24;18.80;63.78
22917;DHT22;11624;53.250;7.456;2022-10-18T04:12:53;18.77;63.79
22917;DHT22;11624;53.250;7.456;2022-10-18T04:15:22;18.71;63.83
22917;DHT22;11624;53.250;7.456;2022-10-18T04:17:50;18.70;63.91
22917;DHT22;11624;53.250;7.456;2022-10-18T04:20:18;18.72;63.85
22917;DHT22;11624;53.250;7.456;2022-10-18T04:22:47;18.71;63.78
22917;DHT22;11624;53.250;7.456;2022-10-18T04:25:15;18.67;63.92
22917;DHT22;11624;53.250;7.456;2022-10-18T04:27:43;18.65;63.93
22917;DHT22;11624;53.250;7.456;2022-10-18T04:30:11;18.59;64.08
22917;DHT22;11624;53.250;7.456;2022-10-18T04:32:40;18.61;64.05
22917;DHT22;11624;53.250;7.456;2022-10-18T04:35:09;18.59;64.01
22917;DHT22;11624;53.250;7.456;2022-10-18T04:37:37;18.57;63.86
22917;DHT22;11624;53.250;7.456;2022-10-18T04:40:06;18.53;63.81
22917;DHT22;11624;53.250;7.456;2022-10-18T04:42:34;18.49;63.79
22917;DHT22;11624;53.250;7.456;2022-10-18T04:45:02;18.40;63.91
22917;DHT22;11624;53.250;7.456;2022-10-18T04:47:30;18.37;63.93
22917;DHT22;11624;53.250;7.456;2022-10-18T04:50:00;18.32;63.97
22917;DHT22;11624;53.250;7.456;2022-10-18T04:52:28;18.30;64.00
22917;DHT22;11624;53.250;7.456;2022-10-18T04:54:56;18.27;63.99
22917;DHT22;11624;53.250;7.456;2022-10-18T04:57:24;18.27;63.88
22917;DHT22;11624;53.250;7.456;2022-10-18T04:59:52;18.19;63.92
22917;DHT22;11624;53.250;7.456;2022-10-18T05:02:20;18.17;63.89
22917;DHT22;11624;53.250;7.456;2022-10-18T05:04:49;18.17;63.94
22917;DHT22;11624;53.250;7.456;2022-10-18T05:07:18;18.14;63.98
22917;DHT22;11624;53.250;7.456;2022-10-18T05:09:46;18.15;63.93
22917;DHT22;11624;53.250;7.456;2022-10-18T05:12:14;18.12;63.98
22917;DHT22;11624;53.250;7.456;2022-10-18T05:14:42;18.06;64.06
22917;DHT22;11624;53.250;7.456;2022-10-18T05:17:10;18.03;64.16
22917;DHT22;11624;53.250;7.456;2022-10-18T05:19:39;18.03;64.19
22917;DHT22;11624;53.250;7.456;2022-10-18T05:22:07;18.02;64.15
22917;DHT22;11624;53.250;7.456;2022-10-18T05:24:36;17.99;64.23
22917;DHT22;11624;53.250;7.456;2022-10-18T05:27:04;17.97;64.27
22917;DHT22;11624;53.250;7.456;2022-10-18T05:29:32;17.99;64.18
22917;DHT22;11624;53.250;7.456;2022-10-18T05:32:00;17.94;64.21
22917;DHT22;11624;53.250;7.456;2022-10-18T05:34:28;17.95;64.22
22917;DHT22;11624;53.250;7.456;2022-10-18T05:36:58;17.95;64.23
22917;DHT22;11624;53.250;7.456;2022-10-18T05:39:26;17.94;64.18
22917;DHT22;11624;53.250;7.456;2022-10-18T05:41:55;17.94;64.01
22917;DHT22;11624;53.250;7.456;2022-10-18T05:44:24;17.94;64.01
22917;DHT22;11624;53.250;7.456;2022-10-18T05:46:52;17.93;64.04
22917;DHT22;11624;53.250;7.456;2022-10-18T05:49:20;17.93;63.89
22917;DHT22;11624;53.250;7.456;2022-10-18T05:51:48;17.89;63.92
22917;DHT22;11624;53.250;7.456;2022-10-18T05:54:16;17.87;63.89
22917;DHT22;11624;53.250;7.456;2022-10-18T05:56:44;17.83;63.91
22917;DHT22;11624;53.250;7.456;2022-10-18T05:59:14;17.76;64.01
22917;DHT22;11624;53.250;7.456;2022-10-18T06:01:42;17.72;64.07
22917;DHT22;11624;53.250;7.456;2022-10-18T06:04:11;17.68;64.09
22917;DHT22;11624;53.250;7.456;2022-10-18T06:06:39;17.67;64.09
22917;DHT22;11624;53.250;7.456;2022-10-18T06:09:07;17.69;64.08
22917;DHT22;11624;53.250;7.456;2022-10-18T06:11:35;17.66;64.08
22917;DHT22;11624;53.250;7.456;2022-10-18T06:14:03;17.66;64.09
22917;DHT22;11624;53.250;7.456;2022-10-18T06:16:33;17.65;64.12
22917;DHT22;11624;53.250;7.456;2022-10-18T06:19:06;17.65;64.09
22917;DHT22;11624;53.250;7.456;2022-10-18T06:21:34;17.62;64.12
22917;DHT22;11624;53.250;7.456;2022-10-18T06:24:02;17.58;64.32
22917;DHT22;11624;53.250;7.456;2022-10-18T06:26:30;17.58;64.35
22917;DHT22;11624;53.250;7.456;2022-10-18T06:28:58;17.60;64.27
22917;DHT22;11624;53.250;7.456;2022-10-18T06:31:26;17.62;64.30
22917;DHT22;11624;53.250;7.456;2022-10-18T06:33:56;17.64;64.28
22917;DHT22;11624;53.250;7.456;2022-10-18T06:36:24;17.67;64.24
22917;DHT22;11624;53.250;7.456;2022-10-18T06:38:52;17.68;64.01
22917;DHT22;11624;53.250;7.456;2022-10-18T06:41:22;17.61;64.08
22917;DHT22;11624;53.250;7.456;2022-10-18T06:43:52;17.53;64.27
22917;DHT22;11624;53.250;7.456;2022-10-18T06:46:23;17.55;64.47
22917;DHT22;11624;53.250;7.456;2022-10-18T06:48:51;17.62;64.50
22917;DHT22;11624;53.250;7.456;2022-10-18T06:51:21;17.69;64.36
22917;DHT22;11624;53.250;7.456;2022-10-18T06:53:48;17.70;64.22
22917;DHT22;11624;53.250;7.456;2022-10-18T06:56:37;17.76;64.24
22917;DHT22;11624;53.250;7.456;2022-10-18T06:59:05;17.75;64.25
22917;DHT22;11624;53.250;7.456;2022-10-18T07:01:33;17.74;64.21
22917;DHT22;11624;53.250;7.456;2022-10-18T07:04:01;17.75;64.06
22917;DHT22;11624;53.250;7.456;2022-10-18T07:06:30;17.72;63.89
22917;DHT22;11624;53.250;7.456;2022-10-18T07:08:58;17.66;63.98
22917;DHT22;11624;53.250;7.456;2022-10-18T07:11:28;17.62;64.05
22917;DHT22;11624;53.250;7.456;2022-10-18T07:13:58;17.60;63.91
22917;DHT22;11624;53.250;7.456;2022-10-18T07:16:29;17.55;64.18
22917;DHT22;11624;53.250;7.456;2022-10-18T07:18:57;17.52;64.40
22917;DHT22;11624;53.250;7.456;2022-10-18T07:21:25;17.54;64.40
22917;DHT22;11624;53.250;7.456;2022-10-18T07:23:55;17.61;64.50
22917;DHT22;11624;53.250;7.456;2022-10-18T07:26:24;17.66;64.53
22917;DHT22;11624;53.250;7.456;2022-10-18T07:28:56;17.72;64.48
22917;DHT22;11624;53.250;7.456;2022-10-18T07:31:25;17.74;64.45
22917;DHT22;11624;53.250;7.456;2022-10-18T07:33:53;17.79;64.28
22917;DHT22;11624;53.250;7.456;2022-10-18T07:36:21;17.81;64.15
22917;DHT22;11624;53.250;7.456;2022-10-18T07:38:51;17.84;64.14
22917;DHT22;11624;53.250;7.456;2022-10-18T07:41:20;17.87;64.08
22917;DHT22;11624;53.250;7.456;2022-10-18T07:43:51;17.87;64.10
22917;DHT22;11624;53.250;7.456;2022-10-18T07:46:20;17.90;64.11
22917;DHT22;11624;53.250;7.456;2022-10-18T07:48:49;17.90;64.14
22917;DHT22;11624;53.250;7.456;2022-10-18T07:51:17;17.84;64.26
22917;DHT22;11624;53.250;7.456;2022-10-18T07:53:46;17.91;64.45
22917;DHT22;11624;53.250;7.456;2022-10-18T07:56:16;17.99;64.17
22917;DHT22;11624;53.250;7.456;2022-10-18T07:58:50;18.07;64.22
22917;DHT22;11624;53.250;7.456;2022-10-18T08:01:18;18.14;64.34
22917;DHT22;11624;53.250;7.456;2022-10-18T08:03:47;18.28;64.51
22917;DHT22;11624;53.250;7.456;2022-10-18T08:06:17;18.41;64.29
22917;DHT22;11624;53.250;7.456;2022-10-18T08:08:45;18.41;64.05
22917;DHT22;11624;53.250;7.456;2022-10-18T08:11:15;18.37;64.05
22917;DHT22;11624;53.250;7.456;2022-10-18T08:13:43;18.40;63.96
22917;DHT22;11624;53.250;7.456;2022-10-18T08:16:15;18.42;63.81
22917;DHT22;11624;53.250;7.456;2022-10-18T08:18:43;18.53;64.35
22917;DHT22;11624;53.250;7.456;2022-10-18T08:21:12;18.69;64.53
22917;DHT22;11624;53.250;7.456;2022-10-18T08:23:41;18.79;63.90
22917;DHT22;11624;53.250;7.456;2022-10-18T08:26:11;18.71;63.37
22917;DHT22;11624;53.250;7.456;2022-10-18T08:28:40;18.69;63.63
22917;DHT22;11624;53.250;7.456;2022-10-18T08:31:25;18.74;63.56
22917;DHT22;11624;53.250;7.456;2022-10-18T08:33:54;18.74;63.63
22917;DHT22;11624;53.250;7.456;2022-10-18T08:36:23;18.84;64.47
22917;DHT22;11624;53.250;7.456;2022-10-18T08:38:51;19.01;63.99
22917;DHT22;11624;53.250;7.456;2022-10-18T08:41:36;19.03;63.45
22917;DHT22;11624;53.250;7.456;2022-10-18T08:44:14;19.11;63.47
22917;DHT22;11624;53.250;7.456;2022-10-18T08:46:47;19.20;63.79
22917;DHT22;11624;53.250;7.456;2022-10-18T08:49:23;19.35;63.63
22917;DHT22;11624;53.250;7.456;2022-10-18T08:51:54;19.30;62.86
22917;DHT22;11624;53.250;7.456;2022-10-18T08:54:28;19.38;64.14
22917;DHT22;11624;53.250;7.456;2022-10-18T08:57:00;19.82;65.62
22917;DHT22;11624;53.250;7.456;2022-10-18T08:59:35;20.28;65.02
22917;DHT22;11624;53.250;7.456;2022-10-18T09:02:15;20.89;65.53
22917;DHT22;11624;53.250;7.456;2022-10-18T09:04:48;21.67;64.08
22917;DHT22;11624;53.250;7.456;2022-10-18T09:07:26;22.21;61.73
22917;DHT22;11624;53.250;7.456;2022-10-18T09:10:12;22.60;58.60
22917;DHT22;11624;53.250;7.456;2022-10-18T09:12:54;22.64;57.95
22917;DHT22;11624;53.250;7.456;2022-10-18T09:15:33;22.93;57.67
22917;DHT22;11624;53.250;7.456;2022-10-18T09:18:14;23.29;56.34
22917;DHT22;11624;53.250;7.456;2022-10-18T09:20:50;23.73;57.01
22917;DHT22;11624;53.250;7.456;2022-10-18T09:23:21;24.23;54.41
22917;DHT22;11624;53.250;7.456;2022-10-18T09:25:56;24.55;53.68
22917;DHT22;11624;53.250;7.456;2022-10-18T09:28:36;24.88;52.26
22917;DHT22;11624;53.250;7.456;2022-10-18T09:31:13;25.20;50.65
22917;DHT22;11624;53.250;7.456;2022-10-18T09:33:49;25.45;49.25
22917;DHT22;11624;53.250;7.456;2022-10-18T09:36:20;25.71;48.74
22917;DHT22;11624;53.250;7.456;2022-10-18T09:38:51;25.94;48.43
22917;DHT22;11624;53.250;7.456;2022-10-18T09:41:29;26.26;46.75
22917;DHT22;11624;53.250;7.456;2022-10-18T09:44:02;26.55;46.08
22917;DHT22;11624;53.250;7.456;2022-10-18T09:46:36;26.75;44.80
22917;DHT22;11624;53.250;7.456;2022-10-18T09:49:11;26.96;44.38
22917;DHT22;11624;53.250;7.456;2022-10-18T09:51:42;26.99;43.32
22917;DHT22;11624;53.250;7.456;2022-10-18T09:54:19;27.07;43.45
22917;DHT22;11624;53.250;7.456;2022-10-18T09:56:50;27.11;43.39
22917;DHT22;11624;53.250;7.456;2022-10-18T09:59:30;27.25;42.48
22917;DHT22;11624;53.250;7.456;2022-10-18T10:01:59;27.32;42.41
22917;DHT22;11624;53.250;7.456;2022-10-18T10:04:28;27.29;42.15
22917;DHT22;11624;53.250;7.456;2022-10-18T10:07:00;27.35;40.68
22917;DHT22;11624;53.250;7.456;2022-10-18T10:09:30;27.31;39.88
22917;DHT22;11624;53.250;7.456;2022-10-18T10:11:58;27.42;40.58
22917;DHT22;11624;53.250;7.456;2022-10-18T10:14:27;27.56;39.49
22917;DHT22;11624;53.250;7.456;2022-10-18T10:16:58;27.45;39.59
22917;DHT22;11624;53.250;7.456;2022-10-18T10:19:31;27.67;39.76
22917;DHT22;11624;53.250;7.456;2022-10-18T10:22:03;27.94;39.20
22917;DHT22;11624;53.250;7.456;2022-10-18T10:24:38;28.12;38.53
22917;DHT22;11624;53.250;7.456;2022-10-18T10:27:16;27.95;37.87
22917;DHT22;11624;53.250;7.456;2022-10-18T10:29:55;27.90;38.36
22917;DHT22;11624;53.250;7.456;2022-10-18T10:32:30;28.11;37.66
22917;DHT22;11624;53.250;7.456;2022-10-18T10:35:00;28.55;36.92
22917;DHT22;11624;53.250;7.456;2022-10-18T10:37:33;28.69;35.88
22917;DHT22;11624;53.250;7.456;2022-10-18T10:40:19;28.79;35.55
22917;DHT22;11624;53.250;7.456;2022-10-18T10:43:03;28.79;34.82
22917;DHT22;11624;53.250;7.456;2022-10-18T10:46:00;28.99;34.52
22917;DHT22;11624;53.250;7.456;2022-10-18T10:48:31;28.99;34.18
22917;DHT22;11624;53.250;7.456;2022-10-18T10:51:04;29.07;33.56
22917;DHT22;11624;53.250;7.456;2022-10-18T10:53:37;28.88;34.77
22917;DHT22;11624;53.250;7.456;2022-10-18T10:59:05;28.48;36.07
22917;DHT22;11624;53.250;7.456;2022-10-18T11:01:34;28.54;35.87
22917;DHT22;11624;53.250;7.456;2022-10-18T11:04:24;28.67;34.92
22917;DHT22;11624;53.250;7.456;2022-10-18T11:07:07;28.28;35.87
22917;DHT22;11624;53.250;7.456;2022-10-18T11:09:57;28.31;34.73
22917;DHT22;11624;53.250;7.456;2022-10-18T11:12:31;27.78;35.82
22917;DHT22;11624;53.250;7.456;2022-10-18T11:15:19;27.82;36.59
22917;DHT22;11624;53.250;7.456;2022-10-18T11:17:59;27.72;35.34
22917;DHT22;11624;53.250;7.456;2022-10-18T11:20:34;26.96;35.63
22917;DHT22;11624;53.250;7.456;2022-10-18T11:23:07;25.94;38.04
22917;DHT22;11624;53.250;7.456;2022-10-18T11:25:51;25.84;39.67
22917;DHT22;11624;53.250;7.456;2022-10-18T11:28:29;25.96;38.59
22917;DHT22;11624;53.250;7.456;2022-10-18T11:31:11;25.92;39.51
22917;DHT22;11624;53.250;7.456;2022-10-18T11:33:51;26.51;38.86
22917;DHT22;11624;53.250;7.456;2022-10-18T11:36:42;27.26;36.74
22917;DHT22;11624;53.250;7.456;2022-10-18T11:39:36;27.63;35.78
22917;DHT22;11624;53.250;7.456;2022-10-18T11:42:15;28.05;34.47
22917;DHT22;11624;53.250;7.456;2022-10-18T11:44:53;28.31;33.76
22917;DHT22;11624;53.250;7.456;2022-10-18T11:47:26;28.44;34.38
22917;DHT22;11624;53.250;7.456;2022-10-18T11:50:06;28.58;33.09
22917;DHT22;11624;53.250;7.456;2022-10-18T11:52:44;28.70;33.89
22917;DHT22;11624;53.250;7.456;2022-10-18T11:55:33;28.93;33.37
22917;DHT22;11624;53.250;7.456;2022-10-18T11:58:29;29.13;32.86
22917;DHT22;11624;53.250;7.456;2022-10-18T12:01:05;29.26;31.95
22917;DHT22;11624;53.250;7.456;2022-10-18T12:03:50;29.17;32.26
22917;DHT22;11624;53.250;7.456;2022-10-18T12:06:24;29.41;32.09
22917;DHT22;11624;53.250;7.456;2022-10-18T12:08:56;29.54;31.12
22917;DHT22;11624;53.250;7.456;2022-10-18T12:11:29;29.22;30.76
22917;DHT22;11624;53.250;7.456;2022-10-18T12:14:00;28.87;31.90
22917;DHT22;11624;53.250;7.456;2022-10-18T12:16:33;28.30;32.93
22917;DHT22;11624;53.250;7.456;2022-10-18T12:19:20;27.74;32.32
22917;DHT22;11624;53.250;7.456;2022-10-18T12:21:54;27.59;33.44
22917;DHT22;11624;53.250;7.456;2022-10-18T12:24:25;27.56;32.60
22917;DHT22;11624;53.250;7.456;2022-10-18T12:26:58;27.65;33.92
22917;DHT22;11624;53.250;7.456;2022-10-18T12:29:29;27.72;33.84
22917;DHT22;11624;53.250;7.456;2022-10-18T12:32:01;27.64;34.31
22917;DHT22;11624;53.250;7.456;2022-10-18T12:34:33;27.35;34.08
22917;DHT22;11624;53.250;7.456;2022-10-18T12:37:25;26.80;34.56
22917;DHT22;11624;53.250;7.456;2022-10-18T12:39:59;26.57;35.75
22917;DHT22;11624;53.250;7.456;2022-10-18T12:42:45;26.47;35.43
22917;DHT22;11624;53.250;7.456;2022-10-18T12:45:28;26.43;36.63
22917;DHT22;11624;53.250;7.456;2022-10-18T12:47:59;26.62;37.09
22917;DHT22;11624;53.250;7.456;2022-10-18T12:50:35;26.75;36.82
22917;DHT22;11624;53.250;7.456;2022-10-18T12:53:17;26.82;35.13
22917;DHT22;11624;53.250;7.456;2022-10-18T12:55:47;26.94;35.19
22917;DHT22;11624;53.250;7.456;2022-10-18T12:58:27;27.05;33.12
22917;DHT22;11624;53.250;7.456;2022-10-18T13:01:01;27.12;33.92
22917;DHT22;11624;53.250;7.456;2022-10-18T13:03:54;26.99;34.01
22917;DHT22;11624;53.250;7.456;2022-10-18T13:06:24;27.06;34.22
22917;DHT22;11624;53.250;7.456;2022-10-18T13:09:17;27.01;35.08
22917;DHT22;11624;53.250;7.456;2022-10-18T13:11:46;26.97;35.10
22917;DHT22;11624;53.250;7.456;2022-10-18T13:14:52;26.77;35.02
22917;DHT22;11624;53.250;7.456;2022-10-18T13:17:49;26.43;35.66
22917;DHT22;11624;53.250;7.456;2022-10-18T13:20:22;26.43;36.05
22917;DHT22;11624;53.250;7.456;2022-10-18T13:23:13;26.18;36.07
22917;DHT22;11624;53.250;7.456;2022-10-18T13:25:56;26.19;36.32
22917;DHT22;11624;53.250;7.456;2022-10-18T13:28:29;26.12;35.64
22917;DHT22;11624;53.250;7.456;2022-10-18T13:31:17;25.88;36.87
22917;DHT22;11624;53.250;7.456;2022-10-18T13:33:46;26.31;37.24
22917;DHT22;11624;53.250;7.456;2022-10-18T13:36:21;26.78;36.34
22917;DHT22;11624;53.250;7.456;2022-10-18T13:39:02;27.14;35.49
22917;DHT22;11624;53.250;7.456;2022-10-18T13:42:17;27.42;34.66
22917;DHT22;11624;53.250;7.456;2022-10-18T13:44:27;27.39;33.96
22917;DHT22;11624;53.250;7.456;2022-10-18T13:47:33;27.44;33.79
22917;DHT22;11624;53.250;7.456;2022-10-18T13:50:25;27.37;33.51
22917;DHT22;11624;53.250;7.456;2022-10-18T13:53:28;27.60;33.73
22917;DHT22;11624;53.250;7.456;2022-10-18T13:56:22;27.70;34.35
22917;DHT22;11624;53.250;7.456;2022-10-18T13:59:01;28.01;33.11
22917;DHT22;11624;53.250;7.456;2022-10-18T14:01:50;28.10;32.63
22917;DHT22;11624;53.250;7.456;2022-10-18T14:04:37;28.04;32.69
22917;DHT22;11624;53.250;7.456;2022-10-18T14:07:07;28.12;31.72
22917;DHT22;11624;53.250;7.456;2022-10-18T14:09:43;27.61;32.80
22917;DHT22;11624;53.250;7.456;2022-10-18T14:12:24;27.51;32.55
22917;DHT22;11624;53.250;7.456;2022-10-18T14:14:58;27.23;32.60
22917;DHT22;11624;53.250;7.456;2022-10-18T14:17:35;27.04;33.40
22917;DHT22;11624;53.250;7.456;2022-10-18T14:20:16;26.85;34.18
22917;DHT22;11624;53.250;7.456;2022-10-18T14:22:48;26.73;34.07
22917;DHT22;11624;53.250;7.456;2022-10-18T14:25:20;26.57;34.15
22917;DHT22;11624;53.250;7.456;2022-10-18T14:28:02;26.25;34.72
22917;DHT22;11624;53.250;7.456;2022-10-18T14:30:34;25.94;35.30
22917;DHT22;11624;53.250;7.456;2022-10-18T14:33:04;25.51;35.40
22917;DHT22;11624;53.250;7.456;2022-10-18T14:35:32;25.15;36.43
22917;DHT22;11624;53.250;7.456;2022-10-18T14:38:01;24.68;37.39
22917;DHT22;11624;53.250;7.456;2022-10-18T14:40:34;24.36;38.29
22917;DHT22;11624;53.250;7.456;2022-10-18T14:43:08;24.20;39.12
22917;DHT22;11624;53.250;7.456;2022-10-18T14:45:37;24.14;39.51
22917;DHT22;11624;53.250;7.456;2022-10-18T14:48:13;24.03;39.50
22917;DHT22;11624;53.250;7.456;2022-10-18T14:50:42;23.95;40.44
22917;DHT22;11624;53.250;7.456;2022-10-18T14:53:15;23.80;40.27
22917;DHT22;11624;53.250;7.456;2022-10-18T14:55:51;23.52;40.68
22917;DHT22;11624;53.250;7.456;2022-10-18T14:58:20;23.16;41.18
22917;DHT22;11624;53.250;7.456;2022-10-18T15:00:49;22.92;41.63
22917;DHT22;11624;53.250;7.456;2022-10-18T15:03:18;22.68;42.25
22917;DHT22;11624;53.250;7.456;2022-10-18T15:05:54;22.51;42.54
22917;DHT22;11624;53.250;7.456;2022-10-18T15:08:26;22.40;43.04
22917;DHT22;11624;53.250;7.456;2022-10-18T15:10:56;22.24;43.53
22917;DHT22;11624;53.250;7.456;2022-10-18T15:13:24;22.20;43.88
22917;DHT22;11624;53.250;7.456;2022-10-18T15:15:53;22.22;44.35
22917;DHT22;11624;53.250;7.456;2022-10-18T15:18:25;22.26;44.49
22917;DHT22;11624;53.250;7.456;2022-10-18T15:21:07;22.24;44.38
22917;DHT22;11624;53.250;7.456;2022-10-18T15:23:35;22.20;44.74
22917;DHT22;11624;53.250;7.456;2022-10-18T15:26:05;22.16;44.83
22917;DHT22;11624;53.250;7.456;2022-10-18T15:28:36;22.08;45.03
22917;DHT22;11624;53.250;7.456;2022-10-18T15:31:22;21.98;45.08
22917;DHT22;11624;53.250;7.456;2022-10-18T15:33:53;21.87;45.38
22917;DHT22;11624;53.250;7.456;2022-10-18T15:36:28;21.81;45.51
22917;DHT22;11624;53.250;7.456;2022-10-18T15:39:06;21.80;45.36
22917;DHT22;11624;53.250;7.456;2022-10-18T15:41:39;21.78;45.54
22917;DHT22;11624;53.250;7.456;2022-10-18T15:44:19;21.72;45.32
22917;DHT22;11624;53.250;7.456;2022-10-18T15:46:48;21.66;45.48
22917;DHT22;11624;53.250;7.456;2022-10-18T15:52:31;21.54;45.70
22917;DHT22;11624;53.250;7.456;2022-10-18T15:55:44;21.44;45.68
22917;DHT22;11624;53.250;7.456;2022-10-18T15:58:18;21.34;45.91
22917;DHT22;11624;53.250;7.456;2022-10-18T16:00:49;21.24;45.48
22917;DHT22;11624;53.250;7.456;2022-10-18T16:03:18;21.18;45.71
22917;DHT22;11624;53.250;7.456;2022-10-18T16:05:47;21.05;45.51
22917;DHT22;11624;53.250;7.456;2022-10-18T16:08:22;21.01;45.03
22917;DHT22;11624;53.250;7.456;2022-10-18T16:10:51;20.98;45.16
22917;DHT22;11624;53.250;7.456;2022-10-18T16:13:19;20.92;45.15
22917;DHT22;11624;53.250;7.456;2022-10-18T16:15:47;20.88;45.24